createdAt,value
2022-10-09T00:00:25.173Z,9.53
2022-10-09T00:05:27.003Z,9.03
2022-10-09T00:10:26.345Z,8.88
2022-10-09T00:15:25.141Z,8.81
2022-10-09T00:20:23.763Z,8.66
2022-10-09T00:25:22.633Z,8.68
2022-10-09T00:30:21.225Z,8.35
2022-10-09T00:35:20.356Z,8.33
2022-10-09T00:40:19.248Z,8.16
2022-10-09T00:45:21.199Z,8.08
2022-10-09T00:50:23.778Z,8.13
2022-10-09T00:55:23.632Z,7.92
2022-10-09T01:00:22.996Z,7.77
2022-10-09T01:05:39.504Z,7.59
2022-10-09T01:10:48.574Z,7.79
2022-10-09T01:16:00.842Z,7.52
2022-10-09T01:21:10.154Z,7.50
2022-10-09T01:26:12.730Z,7.44
2022-10-09T01:31:12.850Z,7.21
2022-10-09T01:36:11.908Z,7.62
2022-10-09T01:41:11.286Z,7.23
2022-10-09T01:46:36.326Z,7.00
2022-10-09T01:51:53.219Z,7.10
2022-10-09T01:56:55.285Z,7.06
2022-10-09T02:01:56.118Z,7.29
2022-10-09T02:06:55.465Z,7.41
2022-10-09T02:11:57.257Z,7.27
2022-10-09T02:17:05.949Z,7.11
2022-10-09T02:22:15.032Z,7.08
2022-10-09T02:27:15.280Z,6.91
2022-10-09T02:32:14.482Z,6.83
2022-10-09T02:37:13.288Z,6.88
2022-10-09T02:42:11.925Z,7.07
2022-10-09T02:47:10.703Z,6.97
2022-10-09T02:52:09.389Z,6.61
2022-10-09T02:57:08.140Z,6.63
2022-10-09T03:02:06.863Z,6.69
2022-10-09T03:07:05.685Z,6.65
2022-10-09T03:12:04.679Z,6.76
2022-10-09T03:17:03.355Z,6.61
2022-10-09T03:22:01.956Z,6.66
2022-10-09T03:27:00.522Z,6.66
2022-10-09T03:31:59.221Z,6.55
2022-10-09T03:36:58.193Z,6.43
2022-10-09T03:41:56.772Z,6.57
2022-10-09T03:46:55.508Z,6.56
2022-10-09T03:51:54.143Z,6.75
2022-10-09T03:56:52.821Z,6.71
2022-10-09T04:01:52.070Z,6.55
2022-10-09T04:06:50.654Z,6.64
2022-10-09T04:11:49.323Z,6.68
2022-10-09T04:16:48.001Z,6.57
2022-10-09T04:21:46.737Z,6.41
2022-10-09T04:26:45.436Z,6.30
2022-10-09T04:31:44.102Z,6.36
2022-10-09T04:36:42.948Z,6.21
2022-10-09T04:41:41.675Z,6.15
2022-10-09T04:46:40.334Z,6.61
2022-10-09T04:51:39.073Z,6.44
2022-10-09T04:56:37.754Z,6.38
2022-10-09T05:01:38.452Z,6.31
2022-10-09T05:06:37.395Z,6.40
2022-10-09T05:11:40.396Z,6.29
2022-10-09T05:17:08.143Z,6.51
2022-10-09T05:22:01.159Z,6.36
2022-10-09T05:26:59.759Z,6.57
2022-10-09T05:31:58.456Z,6.62
2022-10-09T05:36:57.120Z,6.32
2022-10-09T05:41:55.852Z,6.18
2022-10-09T05:46:55.335Z,6.18
2022-10-09T05:51:56.093Z,6.33
2022-10-09T05:56:54.891Z,6.29
2022-10-09T06:01:54.973Z,6.56
2022-10-09T06:06:53.787Z,6.84
2022-10-09T06:11:54.423Z,6.84
2022-10-09T06:16:53.233Z,7.13
2022-10-09T06:21:52.148Z,7.14
2022-10-09T06:26:50.770Z,7.05
2022-10-09T06:31:49.484Z,6.87
2022-10-09T06:36:48.643Z,7.29
2022-10-09T06:41:47.235Z,7.33
2022-10-09T06:47:01.847Z,6.85
2022-10-09T06:52:00.613Z,6.78
2022-10-09T06:56:59.244Z,7.05
2022-10-09T07:01:58.154Z,6.91
2022-10-09T07:06:57.205Z,7.30
2022-10-09T07:11:55.989Z,7.24
2022-10-09T07:16:54.674Z,7.61
2022-10-09T07:21:53.376Z,7.64
2022-10-09T07:26:52.282Z,7.72
2022-10-09T07:31:50.932Z,7.96
2022-10-09T07:36:49.569Z,8.39
2022-10-09T07:41:52.239Z,8.57
2022-10-09T07:46:51.719Z,8.73
2022-10-09T07:51:50.900Z,9.00
2022-10-09T07:56:49.582Z,9.10
2022-10-09T08:01:48.315Z,9.35
2022-10-09T08:06:47.043Z,9.40
2022-10-09T08:11:45.923Z,9.38
2022-10-09T08:16:44.764Z,9.95
2022-10-09T08:21:43.573Z,10.15
2022-10-09T08:26:44.141Z,10.36
2022-10-09T08:31:46.561Z,12.00
2022-10-09T08:36:45.308Z,11.71
2022-10-09T08:41:50.371Z,11.55
2022-10-09T08:46:51.928Z,11.63
2022-10-09T08:51:50.851Z,11.68
2022-10-09T08:56:50.713Z,11.99
2022-10-09T09:02:07.877Z,12.07
2022-10-09T09:07:34.741Z,12.44
2022-10-09T09:13:15.435Z,12.50
2022-10-09T09:18:43.336Z,12.62
2022-10-09T09:23:46.848Z,12.75
2022-10-09T09:28:49.955Z,13.06
2022-10-09T09:39:13.525Z,13.18
2022-10-09T09:44:06.207Z,13.39
2022-10-09T09:49:19.701Z,13.36
2022-10-09T09:54:24.463Z,13.66
2022-10-09T09:59:31.640Z,13.68
2022-10-09T10:04:30.493Z,13.88
2022-10-09T10:09:29.306Z,14.01
2022-10-09T10:14:28.532Z,14.13
2022-10-09T10:19:30.089Z,14.31
2022-10-09T10:24:44.488Z,14.44
2022-10-09T10:29:45.912Z,14.49
2022-10-09T10:34:50.444Z,14.59
2022-10-09T10:39:58.483Z,14.63
2022-10-09T10:45:04.302Z,14.72
2022-10-09T10:50:03.092Z,14.75
2022-10-09T10:55:26.157Z,15.00
2022-10-09T11:00:26.476Z,15.04
2022-10-09T11:05:43.703Z,15.83
2022-10-09T11:11:08.847Z,16.01
2022-10-09T11:16:33.748Z,15.73
2022-10-09T11:21:47.630Z,15.66
2022-10-09T11:27:13.939Z,15.61
2022-10-09T11:32:22.609Z,15.73
2022-10-09T11:37:27.000Z,15.71
2022-10-09T11:42:26.790Z,15.84
2022-10-09T11:47:59.431Z,15.85
2022-10-09T11:53:04.187Z,16.04
2022-10-09T11:58:18.429Z,16.11
2022-10-09T12:03:38.587Z,16.35
2022-10-09T12:08:59.804Z,16.40
2022-10-09T12:14:04.588Z,16.49
2022-10-09T12:19:26.028Z,16.43
2022-10-09T12:24:29.112Z,16.20
2022-10-09T12:29:50.185Z,16.18
2022-10-09T12:34:51.299Z,16.34
2022-10-09T12:39:50.420Z,16.35
2022-10-09T12:44:50.855Z,16.49
2022-10-09T12:49:59.646Z,16.48
2022-10-09T12:54:58.503Z,16.41
2022-10-09T12:59:58.298Z,16.47
2022-10-09T13:05:00.866Z,16.38
2022-10-09T13:10:03.005Z,16.40
2022-10-09T13:15:05.542Z,16.42
2022-10-09T13:20:13.547Z,16.18
2022-10-09T13:25:12.309Z,16.39
2022-10-09T13:30:12.007Z,16.94
2022-10-09T13:35:11.092Z,17.25
2022-10-09T13:40:19.797Z,17.33
2022-10-09T13:45:18.640Z,17.07
2022-10-09T13:50:17.971Z,17.15
2022-10-09T13:55:17.116Z,17.00
2022-10-09T14:00:15.837Z,16.99
2022-10-09T14:05:14.704Z,17.04
2022-10-09T14:10:13.790Z,17.08
2022-10-09T14:15:12.532Z,16.72
2022-10-09T14:20:11.491Z,16.36
2022-10-09T14:25:10.584Z,16.11
2022-10-09T14:30:10.141Z,15.99
2022-10-09T14:35:09.226Z,15.95
2022-10-09T14:40:08.717Z,15.90
2022-10-09T14:45:09.063Z,15.87
2022-10-09T14:50:08.527Z,15.70
2022-10-09T14:55:07.755Z,15.81
2022-10-09T15:00:08.096Z,15.60
2022-10-09T15:05:07.167Z,15.60
2022-10-09T15:10:06.228Z,15.56
2022-10-09T15:15:05.148Z,15.48
2022-10-09T15:20:03.993Z,15.43
2022-10-09T15:25:02.779Z,15.25
2022-10-09T15:30:02.291Z,15.22
2022-10-09T15:35:01.874Z,15.14
2022-10-09T15:40:00.538Z,14.91
2022-10-09T15:44:59.307Z,14.70
2022-10-09T15:49:58.175Z,14.73
2022-10-09T15:54:56.915Z,14.57
2022-10-09T15:59:55.686Z,14.47
2022-10-09T16:04:54.467Z,14.33
2022-10-09T16:09:53.114Z,14.22
2022-10-09T16:14:51.879Z,14.09
2022-10-09T16:19:50.671Z,13.86
2022-10-09T16:24:49.429Z,13.72
2022-10-09T16:29:48.680Z,13.57
2022-10-09T16:34:49.633Z,13.32
2022-10-09T16:39:49.434Z,13.22
2022-10-09T16:44:48.727Z,12.96
2022-10-09T16:49:47.757Z,12.78
2022-10-09T16:54:48.398Z,14.64
2022-10-09T16:59:47.447Z,15.18
2022-10-09T17:04:46.578Z,14.26
2022-10-09T17:09:45.318Z,12.74
2022-10-09T17:14:44.198Z,12.29
2022-10-09T17:19:43.620Z,11.91
2022-10-09T17:24:42.341Z,11.74
2022-10-09T17:29:41.213Z,11.33
2022-10-09T17:34:45.623Z,11.13
2022-10-09T17:39:48.548Z,10.96
2022-10-09T17:44:50.066Z,11.02
2022-10-09T17:49:48.741Z,11.05
2022-10-09T17:54:47.434Z,11.13
2022-10-09T17:59:46.346Z,11.49
2022-10-09T18:04:45.305Z,11.50
2022-10-09T18:09:45.096Z,11.56
2022-10-09T18:14:43.811Z,11.49
2022-10-09T18:19:42.644Z,11.47
2022-10-09T18:24:41.296Z,11.59
2022-10-09T18:29:39.961Z,11.29
2022-10-09T18:34:39.364Z,11.16
2022-10-09T18:39:38.592Z,11.44
2022-10-09T18:44:40.330Z,11.44
2022-10-09T18:49:43.666Z,11.35
2022-10-09T18:54:43.231Z,11.09
2022-10-09T18:59:42.557Z,11.04
2022-10-09T19:04:41.249Z,10.67
2022-10-09T19:09:40.651Z,10.62
2022-10-09T19:14:39.354Z,10.85
2022-10-09T19:19:38.717Z,10.92
2022-10-09T19:24:37.419Z,10.84
2022-10-09T19:29:36.869Z,10.66
2022-10-09T19:34:35.748Z,10.51
2022-10-09T19:39:34.793Z,10.57
2022-10-09T19:44:33.532Z,10.47
2022-10-09T19:49:32.431Z,10.32
2022-10-09T19:54:32.852Z,10.14
2022-10-09T19:59:31.876Z,9.91
2022-10-09T20:04:30.653Z,9.88
2022-10-09T20:09:29.379Z,9.68
2022-10-09T20:14:28.738Z,9.55
2022-10-09T20:19:30.896Z,9.51
2022-10-09T20:24:29.785Z,9.62
2022-10-09T20:29:28.507Z,9.58
2022-10-09T20:34:27.780Z,9.61
2022-10-09T20:39:26.506Z,9.42
2022-10-09T20:44:25.215Z,9.45
2022-10-09T20:49:24.078Z,9.31
2022-10-09T20:54:23.289Z,9.28
2022-10-09T20:59:22.114Z,9.14
2022-10-09T21:04:20.841Z,9.23
2022-10-09T21:09:19.745Z,8.93
2022-10-09T21:14:18.611Z,12.99
2022-10-09T21:19:17.478Z,13.24
2022-10-09T21:24:16.280Z,10.80
2022-10-09T21:29:15.117Z,9.66
2022-10-09T21:34:13.777Z,9.74
2022-10-09T21:39:12.605Z,9.33
2022-10-09T21:44:11.532Z,8.97
2022-10-09T21:49:23.118Z,8.95
2022-10-09T21:54:21.946Z,8.89
2022-10-09T21:59:20.649Z,8.91
2022-10-09T22:04:19.928Z,8.87
2022-10-09T22:09:20.481Z,8.79
2022-10-09T22:14:19.368Z,8.88
2022-10-09T22:19:19.043Z,8.80
2022-10-09T22:24:17.857Z,8.73
2022-10-09T22:29:16.613Z,8.69
2022-10-09T22:34:15.265Z,8.84
2022-10-09T22:39:14.020Z,8.70
2022-10-09T22:44:12.824Z,8.90
2022-10-09T22:49:14.228Z,8.85
2022-10-09T22:54:13.312Z,8.80
2022-10-09T22:59:14.559Z,8.60
2022-10-09T23:04:15.532Z,8.86
2022-10-09T23:09:15.344Z,8.71
2022-10-09T23:14:14.709Z,8.57
2022-10-09T23:19:13.545Z,8.72
2022-10-09T23:24:17.372Z,8.51
2022-10-09T23:29:18.031Z,8.69
2022-10-09T23:34:16.830Z,8.67
2022-10-09T23:39:15.558Z,8.72
2022-10-09T23:44:15.321Z,8.80
2022-10-09T23:49:16.541Z,9.04
2022-10-09T23:54:15.311Z,9.09
2022-10-09T23:59:14.046Z,9.01
